Goetzville, MI

8:00 AM EST on February 06, 2016 (GMT -0500)
Sterling Bay, Lake Huron | | Change Station
CLOSE
Current Station
Personal Weather Station
Location: Hilton Beach, ONTARIO
Elevation: 620 ft
Nearby Weather Stations

Elev 620 ft 46.11 °N, 83.89 °W | Updated 8 minutes ago

Snow
Snow
26.2 °F
Feels Like 26 °F
N
0.0
Wind Variable Wind from East

Today
High -- | Low -- °F
--% Chance of Precip.
Yesterday
High -- | Low -- °F
Precip. -- in
Pressure 30.04 in
Visibility 1.8 miles
Clouds Overcast 800 ft
Windchill 26 °F
Dew Point 26 °F
Humidity 97%
Rainfall 0.00 in
Snow Depth Not available.
7:53 AM 5:48 PM
Waning Crescent, 6% visible
METAR KDRM 061255Z AUTO 26005KT 1 3/4SM -SN OVC008 M02/M02 A3004 RMK AO2 T10201024
Pressure 30.04 in
Visibility 1.8 miles
Clouds Overcast 800 ft
Windchill 26 °F
Dew Point 26 °F
Humidity 97%
Rainfall 0.00 in
Snow Depth Not available.
7:53 AM 5:48 PM
Waning Crescent, 6% visible
METAR KDRM 061255Z AUTO 26005KT 1 3/4SM -SN OVC008 M02/M02 A3004 RMK AO2 T10201024

10-Day Weather Forecast

Almanac

Astronomy

Feb. 06, 2016 Rise Set
Actual Time
Civil Twilight
Nautical Twilight
Astronomical Twilight
Moon
Length of Visible Light
Length of Day
Tomorrow will be .
, % of the Moon is Illuminated

Today's Extremes

State Highs State Lows

Community

WunderPhotos

Upload Photos

1,890,954 photos uploaded!

WunderBlog® & News

Nearby

Air Quality

  Air Quality AQ Index Pollutant
Not available.

Snow Depth

Station Depth Elevation

Earthquake Activity

City Distance Mag. Time & Date
Minimum magnitude displayed is 2.5.

Coastal Water Temperatures

Place Temperature

Stations

Nearby Weather Stations

Station Location Temp. Windchill Dew Point Humidity Wind Precip. Elev Updated Type
                   

Watches & Warnings

There are currently no watches in effect.